createdAt,value
2023-05-20T00:00:36.983Z,11.30
2023-05-20T00:01:36.973Z,11.20
2023-05-20T00:02:37.066Z,11.00
2023-05-20T00:03:37.186Z,11.20
2023-05-20T00:04:36.993Z,11.10
2023-05-20T00:05:36.976Z,10.90
2023-05-20T00:06:36.971Z,10.90
2023-05-20T00:07:37.040Z,11.00
2023-05-20T00:08:36.975Z,10.60
2023-05-20T00:09:36.982Z,11.40
2023-05-20T00:10:36.978Z,11.30
2023-05-20T00:11:36.978Z,10.90
2023-05-20T00:12:36.982Z,11.10
2023-05-20T00:13:36.989Z,11.00
2023-05-20T00:14:36.971Z,11.20
2023-05-20T00:15:37.141Z,11.10
2023-05-20T00:16:37.000Z,11.50
2023-05-20T00:17:36.991Z,11.30
2023-05-20T00:18:36.985Z,11.60
2023-05-20T00:19:36.976Z,11.30
2023-05-20T00:20:36.976Z,11.40
2023-05-20T00:21:36.981Z,11.50
2023-05-20T00:22:36.972Z,11.40
2023-05-20T00:23:36.996Z,11.50
2023-05-20T00:24:36.971Z,12.20
2023-05-20T00:25:37.178Z,11.40
2023-05-20T00:26:36.977Z,11.30
2023-05-20T00:27:36.976Z,11.60
2023-05-20T00:28:36.973Z,11.30
2023-05-20T00:29:36.972Z,11.30
2023-05-20T00:30:36.983Z,11.30
2023-05-20T00:31:36.992Z,11.00
2023-05-20T00:32:37.006Z,11.60
2023-05-20T00:33:36.979Z,11.30
2023-05-20T00:34:36.970Z,11.00
2023-05-20T00:35:37.042Z,10.90
2023-05-20T00:36:36.968Z,10.90
2023-05-20T00:37:36.975Z,11.30
2023-05-20T00:38:36.976Z,11.00
2023-05-20T00:39:37.136Z,11.50
2023-05-20T00:40:36.965Z,11.70
2023-05-20T00:41:36.973Z,11.20
2023-05-20T00:42:36.974Z,11.00
2023-05-20T00:43:36.975Z,11.40
2023-05-20T00:44:36.971Z,11.60
2023-05-20T00:45:37.198Z,11.30
2023-05-20T00:46:37.032Z,11.40
2023-05-20T00:47:37.049Z,11.10
2023-05-20T00:48:36.967Z,11.30
2023-05-20T00:49:36.973Z,11.00
2023-05-20T00:50:36.968Z,11.30
2023-05-20T00:51:36.977Z,11.30
2023-05-20T00:52:36.975Z,11.10
2023-05-20T00:53:36.972Z,11.10
2023-05-20T00:54:36.965Z,11.60
2023-05-20T00:55:36.996Z,11.70
2023-05-20T00:56:36.970Z,11.80
2023-05-20T00:57:36.967Z,11.50
2023-05-20T00:58:37.092Z,11.40
2023-05-20T00:59:36.975Z,11.40
2023-05-20T01:00:36.963Z,11.60
2023-05-20T01:01:37.022Z,11.60
2023-05-20T01:02:37.085Z,11.70
2023-05-20T01:03:37.070Z,11.80
2023-05-20T01:04:36.961Z,11.50
2023-05-20T01:05:38.667Z,11.30
2023-05-20T01:06:36.969Z,11.40
2023-05-20T01:07:36.971Z,11.30
2023-05-20T01:08:36.965Z,11.40
2023-05-20T01:09:36.967Z,11.90
2023-05-20T01:10:36.966Z,13.50
2023-05-20T01:11:36.988Z,12.10
2023-05-20T01:12:36.959Z,11.80
2023-05-20T01:13:36.995Z,11.70
2023-05-20T01:14:36.967Z,11.60
2023-05-20T01:15:37.296Z,11.70
2023-05-20T01:16:37.076Z,11.50
2023-05-20T01:17:36.985Z,11.80
2023-05-20T01:18:36.961Z,11.80
2023-05-20T01:19:36.961Z,11.50
2023-05-20T01:20:36.977Z,11.30
2023-05-20T01:21:36.960Z,11.80
2023-05-20T01:22:36.964Z,11.30
2023-05-20T01:23:36.967Z,11.50
2023-05-20T01:24:36.965Z,11.50
2023-05-20T01:25:37.067Z,11.50
2023-05-20T01:26:36.961Z,11.50
2023-05-20T01:27:36.991Z,11.60
2023-05-20T01:28:36.964Z,11.50
2023-05-20T01:29:36.958Z,11.40
2023-05-20T01:30:36.974Z,10.90
2023-05-20T01:31:37.010Z,11.40
2023-05-20T01:32:37.030Z,11.10
2023-05-20T01:33:36.962Z,11.40
2023-05-20T01:34:36.957Z,11.20
2023-05-20T01:35:37.138Z,10.90
2023-05-20T01:36:36.956Z,11.20
2023-05-20T01:37:36.958Z,11.20
2023-05-20T01:38:36.969Z,11.20
2023-05-20T01:39:36.960Z,11.50
2023-05-20T01:40:36.954Z,11.60
2023-05-20T01:41:36.958Z,11.60
2023-05-20T01:42:36.979Z,11.60
2023-05-20T01:43:37.050Z,11.70
2023-05-20T01:44:36.963Z,11.80
2023-05-20T01:45:37.183Z,11.50
2023-05-20T01:46:37.010Z,11.50
2023-05-20T01:47:36.972Z,11.40
2023-05-20T01:48:36.955Z,11.30
2023-05-20T01:49:36.970Z,11.40
2023-05-20T01:50:36.964Z,11.60
2023-05-20T01:51:36.953Z,11.50
2023-05-20T01:52:36.956Z,11.30
2023-05-20T01:53:36.946Z,11.30
2023-05-20T01:54:36.953Z,11.80
2023-05-20T01:55:36.946Z,11.00
2023-05-20T01:56:36.966Z,11.30
2023-05-20T01:57:36.949Z,11.00
2023-05-20T01:58:36.955Z,11.10
2023-05-20T01:59:36.981Z,11.20
2023-05-20T02:00:37.009Z,10.80
2023-05-20T02:01:36.959Z,10.90
2023-05-20T02:02:37.211Z,10.90
2023-05-20T02:03:36.944Z,11.10
2023-05-20T02:04:36.947Z,10.80
2023-05-20T02:05:37.295Z,10.60
2023-05-20T02:06:36.970Z,12.40
2023-05-20T02:07:36.956Z,10.50
2023-05-20T02:08:37.034Z,10.50
2023-05-20T02:09:36.945Z,10.90
2023-05-20T02:10:36.946Z,10.50
2023-05-20T02:11:36.971Z,10.70
2023-05-20T02:12:36.955Z,11.00
2023-05-20T02:13:36.973Z,10.50
2023-05-20T02:14:36.966Z,10.50
2023-05-20T02:15:37.054Z,10.20
2023-05-20T02:16:36.984Z,10.50
2023-05-20T02:17:36.950Z,10.30
2023-05-20T02:18:36.960Z,10.60
2023-05-20T02:19:36.959Z,10.60
2023-05-20T02:20:36.955Z,10.80
2023-05-20T02:21:36.947Z,10.60
2023-05-20T02:22:36.948Z,10.30
2023-05-20T02:23:36.948Z,10.70
2023-05-20T02:24:36.951Z,10.60
2023-05-20T02:25:36.961Z,10.80
2023-05-20T02:26:36.952Z,10.80
2023-05-20T02:27:36.946Z,10.90
2023-05-20T02:28:36.952Z,10.70
2023-05-20T02:29:36.950Z,10.70
2023-05-20T02:30:36.949Z,10.40
2023-05-20T02:31:36.969Z,10.70
2023-05-20T02:32:36.997Z,10.60
2023-05-20T02:33:36.984Z,10.60
2023-05-20T02:34:36.945Z,10.10
2023-05-20T02:35:37.008Z,10.00
2023-05-20T02:36:36.955Z,9.90
2023-05-20T02:37:36.946Z,9.80
2023-05-20T02:38:36.946Z,9.80
2023-05-20T02:39:36.942Z,10.50
2023-05-20T02:40:36.949Z,10.20
2023-05-20T02:41:36.944Z,10.10
2023-05-20T02:42:36.942Z,9.70
2023-05-20T02:43:36.943Z,10.60
2023-05-20T02:44:36.949Z,9.90
2023-05-20T02:45:36.978Z,10.30
2023-05-20T02:46:36.978Z,10.30
2023-05-20T02:47:37.081Z,10.10
2023-05-20T02:48:36.945Z,10.20
2023-05-20T02:49:36.942Z,10.50
2023-05-20T02:50:36.943Z,10.60
2023-05-20T02:51:36.973Z,11.20
2023-05-20T02:52:36.935Z,10.90
2023-05-20T02:53:36.944Z,10.80
2023-05-20T02:54:36.955Z,10.70
2023-05-20T02:55:36.934Z,10.70
2023-05-20T02:56:36.939Z,11.00
2023-05-20T02:57:36.938Z,10.40
2023-05-20T02:58:36.962Z,10.60
2023-05-20T02:59:36.946Z,10.60
2023-05-20T03:00:36.942Z,10.50
2023-05-20T03:01:36.967Z,10.70
2023-05-20T03:02:36.966Z,10.30
2023-05-20T03:03:36.962Z,10.00
2023-05-20T03:04:37.012Z,10.10
2023-05-20T03:05:36.931Z,9.90
2023-05-20T03:06:36.934Z,10.00
2023-05-20T03:07:36.936Z,9.90
2023-05-20T03:08:36.943Z,10.10
2023-05-20T03:09:36.933Z,10.40
2023-05-20T03:10:36.945Z,10.30
2023-05-20T03:11:36.960Z,10.60
2023-05-20T03:12:36.932Z,10.30
2023-05-20T03:13:36.932Z,10.10
2023-05-20T03:14:36.935Z,9.90
2023-05-20T03:15:37.150Z,10.30
2023-05-20T03:16:37.000Z,10.10
2023-05-20T03:17:36.952Z,10.40
2023-05-20T03:18:36.936Z,10.10
2023-05-20T03:19:36.957Z,10.10
2023-05-20T03:20:36.974Z,10.20
2023-05-20T03:21:36.933Z,10.30
2023-05-20T03:22:36.940Z,10.30
2023-05-20T03:23:36.932Z,10.20
2023-05-20T03:24:36.937Z,10.40
2023-05-20T03:25:36.924Z,10.10
2023-05-20T03:26:36.932Z,10.50
2023-05-20T03:27:36.937Z,10.60
2023-05-20T03:28:36.936Z,11.90
2023-05-20T03:29:36.928Z,10.30
2023-05-20T03:30:36.933Z,10.20
2023-05-20T03:31:36.978Z,11.00
2023-05-20T03:32:37.001Z,9.90
2023-05-20T03:33:36.924Z,10.20
2023-05-20T03:34:36.932Z,9.50
2023-05-20T03:35:37.232Z,9.50
2023-05-20T03:36:36.925Z,9.80
2023-05-20T03:37:36.925Z,10.10
2023-05-20T03:38:36.924Z,10.10
2023-05-20T03:39:36.937Z,10.20
2023-05-20T03:40:36.924Z,10.10
2023-05-20T03:41:36.923Z,10.40
2023-05-20T03:42:36.930Z,10.20
2023-05-20T03:43:36.926Z,10.30
2023-05-20T03:44:36.933Z,10.40
2023-05-20T03:45:37.131Z,10.30
2023-05-20T03:46:37.001Z,10.10
2023-05-20T03:47:36.941Z,10.20
2023-05-20T03:48:36.954Z,10.30
2023-05-20T03:49:36.919Z,10.70
2023-05-20T03:50:36.925Z,10.10
2023-05-20T03:51:36.950Z,10.40
2023-05-20T03:52:36.924Z,10.20
2023-05-20T03:53:36.919Z,10.10
2023-05-20T03:54:36.929Z,10.10
2023-05-20T03:55:37.050Z,10.00
2023-05-20T03:56:36.921Z,10.40
2023-05-20T03:57:36.915Z,10.40
2023-05-20T03:58:36.917Z,10.10
2023-05-20T03:59:36.922Z,10.20
2023-05-20T04:00:36.958Z,10.40
2023-05-20T04:01:36.939Z,10.10
2023-05-20T04:02:36.995Z,10.40
2023-05-20T04:03:36.986Z,9.90
2023-05-20T04:04:36.922Z,9.70
2023-05-20T04:05:37.108Z,9.70
2023-05-20T04:06:36.928Z,10.30
2023-05-20T04:07:36.975Z,10.00
2023-05-20T04:08:36.916Z,10.20
2023-05-20T04:09:36.919Z,10.10
2023-05-20T04:10:36.914Z,9.80
2023-05-20T04:11:36.912Z,10.10
2023-05-20T04:12:36.921Z,10.20
2023-05-20T04:13:36.927Z,10.30
2023-05-20T04:14:36.922Z,10.20
2023-05-20T04:15:36.949Z,10.20
2023-05-20T04:16:36.953Z,9.90
2023-05-20T04:17:36.955Z,10.00
2023-05-20T04:18:36.914Z,10.50
2023-05-20T04:19:36.919Z,10.70
2023-05-20T04:20:36.914Z,10.50
2023-05-20T04:21:36.913Z,10.50
2023-05-20T04:22:36.922Z,10.40
2023-05-20T04:23:36.952Z,10.10
2023-05-20T04:24:36.915Z,10.00
2023-05-20T04:25:37.325Z,10.10
2023-05-20T04:26:36.913Z,10.70
2023-05-20T04:27:36.913Z,10.20
2023-05-20T04:28:36.909Z,10.20
2023-05-20T04:29:36.915Z,10.50
2023-05-20T04:30:36.917Z,10.50
2023-05-20T04:31:36.922Z,10.70
2023-05-20T04:32:36.958Z,10.70
2023-05-20T04:33:36.908Z,10.60
2023-05-20T04:34:36.919Z,10.50
2023-05-20T04:35:36.927Z,10.20
2023-05-20T04:36:36.908Z,10.40
2023-05-20T04:37:36.906Z,10.50
2023-05-20T04:38:36.911Z,10.10
2023-05-20T04:39:36.947Z,10.20
2023-05-20T04:40:36.919Z,10.40
2023-05-20T04:41:36.906Z,10.60
2023-05-20T04:42:36.931Z,10.70
2023-05-20T04:43:36.905Z,10.40
2023-05-20T04:44:36.932Z,9.90
2023-05-20T04:45:36.916Z,10.00
2023-05-20T04:46:36.936Z,11.50
2023-05-20T04:47:37.013Z,9.60
2023-05-20T04:48:36.908Z,9.90
2023-05-20T04:49:36.920Z,9.70
2023-05-20T04:50:36.913Z,9.90
2023-05-20T04:51:36.910Z,10.10
2023-05-20T04:52:36.917Z,10.40
2023-05-20T04:53:36.923Z,10.00
2023-05-20T04:54:36.907Z,9.60
2023-05-20T04:55:36.930Z,9.70
2023-05-20T04:56:36.911Z,9.60
2023-05-20T04:57:36.903Z,9.20
2023-05-20T04:58:36.907Z,9.70
2023-05-20T04:59:36.921Z,9.80
2023-05-20T05:00:36.910Z,9.70
2023-05-20T05:01:36.966Z,10.10
2023-05-20T05:02:36.941Z,15.90
2023-05-20T05:03:37.084Z,10.10
2023-05-20T05:04:36.945Z,12.20
2023-05-20T05:05:36.933Z,10.00
2023-05-20T05:06:36.908Z,10.40
2023-05-20T05:07:36.919Z,10.30
2023-05-20T05:08:36.923Z,10.30
2023-05-20T05:09:36.902Z,10.40
2023-05-20T05:10:36.909Z,10.40
2023-05-20T05:11:36.932Z,10.10
2023-05-20T05:12:36.914Z,10.30
2023-05-20T05:13:36.913Z,10.00
2023-05-20T05:14:36.907Z,10.00
2023-05-20T05:15:37.038Z,10.00
2023-05-20T05:16:36.937Z,9.90
2023-05-20T05:17:36.922Z,10.00
2023-05-20T05:18:36.910Z,10.30
2023-05-20T05:19:37.230Z,9.90
2023-05-20T05:20:36.905Z,10.20
2023-05-20T05:21:36.912Z,10.30
2023-05-20T05:22:36.923Z,10.00
2023-05-20T05:23:36.910Z,10.30
2023-05-20T05:24:36.912Z,10.30
2023-05-20T05:25:36.910Z,10.00
2023-05-20T05:26:36.918Z,10.60
2023-05-20T05:27:36.935Z,12.30
2023-05-20T05:28:36.915Z,10.30
2023-05-20T05:29:36.909Z,10.30
2023-05-20T05:30:36.913Z,10.00
2023-05-20T05:31:36.904Z,10.00
2023-05-20T05:32:37.032Z,10.20
2023-05-20T05:33:37.005Z,10.10
2023-05-20T05:34:36.916Z,10.10
2023-05-20T05:35:36.904Z,9.80
2023-05-20T05:36:36.905Z,10.30
2023-05-20T05:37:36.904Z,9.90
2023-05-20T05:38:36.903Z,9.40
2023-05-20T05:39:36.904Z,8.80
2023-05-20T05:40:36.896Z,9.80
2023-05-20T05:41:36.904Z,9.70
2023-05-20T05:42:36.906Z,9.80
2023-05-20T05:43:36.947Z,9.00
2023-05-20T05:44:36.905Z,9.80
2023-05-20T05:45:36.904Z,9.80
2023-05-20T05:46:36.927Z,9.80
2023-05-20T05:47:36.907Z,8.90
2023-05-20T05:48:36.903Z,9.50
2023-05-20T05:49:36.903Z,9.90
2023-05-20T05:50:36.897Z,9.80
2023-05-20T05:51:38.823Z,10.20
2023-05-20T05:52:36.947Z,10.10
2023-05-20T05:53:36.901Z,9.90
2023-05-20T05:54:36.897Z,9.90
2023-05-20T05:55:36.911Z,10.10
2023-05-20T05:56:36.896Z,10.80
2023-05-20T05:57:36.907Z,10.30
2023-05-20T05:58:36.911Z,10.30
2023-05-20T05:59:36.933Z,10.00
2023-05-20T06:00:36.952Z,10.10
2023-05-20T06:01:36.902Z,10.20
2023-05-20T06:02:37.130Z,9.90
2023-05-20T06:03:37.038Z,10.30
2023-05-20T06:04:36.900Z,10.10
2023-05-20T06:05:37.087Z,10.20
2023-05-20T06:06:36.900Z,10.10
2023-05-20T06:07:36.903Z,9.90
2023-05-20T06:08:36.896Z,9.70
2023-05-20T06:09:36.904Z,9.40
2023-05-20T06:10:36.907Z,9.80
2023-05-20T06:11:36.906Z,9.80
2023-05-20T06:12:36.906Z,10.10
2023-05-20T06:13:36.902Z,9.80
2023-05-20T06:14:36.905Z,10.70
2023-05-20T06:15:37.135Z,9.70
2023-05-20T06:16:36.940Z,9.80
2023-05-20T06:17:36.927Z,9.80
2023-05-20T06:18:36.898Z,10.10
2023-05-20T06:19:36.945Z,9.70
2023-05-20T06:20:36.888Z,10.00
2023-05-20T06:21:36.924Z,9.50
2023-05-20T06:22:36.905Z,9.50
2023-05-20T06:23:36.901Z,9.60
2023-05-20T06:24:36.905Z,9.50
2023-05-20T06:25:36.900Z,9.60
2023-05-20T06:26:36.897Z,11.40
2023-05-20T06:27:36.902Z,9.00
2023-05-20T06:28:36.894Z,9.20
2023-05-20T06:29:36.902Z,8.90
2023-05-20T06:30:36.924Z,9.10
2023-05-20T06:31:36.923Z,9.50
2023-05-20T06:32:36.919Z,9.70
2023-05-20T06:33:36.935Z,9.50
2023-05-20T06:34:36.898Z,9.50
2023-05-20T06:35:36.960Z,9.40
2023-05-20T06:36:36.897Z,9.90
2023-05-20T06:37:36.912Z,9.10
2023-05-20T06:38:36.901Z,9.20
2023-05-20T06:39:36.908Z,9.30
2023-05-20T06:40:36.895Z,9.20
2023-05-20T06:41:36.901Z,8.90
2023-05-20T06:42:36.900Z,9.00
2023-05-20T06:43:36.904Z,9.30
2023-05-20T06:44:36.905Z,10.00
2023-05-20T06:45:36.893Z,9.30
2023-05-20T06:46:36.987Z,9.60
2023-05-20T06:47:37.017Z,9.30
2023-05-20T06:48:36.901Z,10.70
2023-05-20T06:49:36.906Z,9.50
2023-05-20T06:50:36.897Z,9.60
2023-05-20T06:51:36.902Z,9.60
2023-05-20T06:52:36.899Z,9.70
2023-05-20T06:53:36.904Z,9.70
2023-05-20T06:54:36.906Z,10.10
2023-05-20T06:55:37.048Z,9.40
2023-05-20T06:56:36.896Z,9.60
2023-05-20T06:57:36.900Z,9.80
2023-05-20T06:58:36.899Z,11.10
2023-05-20T06:59:36.912Z,10.50
2023-05-20T07:00:36.900Z,10.40
2023-05-20T07:01:36.921Z,10.70
2023-05-20T07:02:36.940Z,10.40
2023-05-20T07:03:37.035Z,10.30
2023-05-20T07:04:36.918Z,10.30
2023-05-20T07:05:36.953Z,10.30
2023-05-20T07:06:36.896Z,10.00
2023-05-20T07:07:36.898Z,9.70
2023-05-20T07:08:36.898Z,10.00
2023-05-20T07:09:36.908Z,10.40
2023-05-20T07:10:36.901Z,10.50
2023-05-20T07:11:36.900Z,10.20
2023-05-20T07:12:37.106Z,9.60
2023-05-20T07:13:36.911Z,9.80
2023-05-20T07:14:36.896Z,9.60
2023-05-20T07:15:37.064Z,9.70
2023-05-20T07:16:36.967Z,10.10
2023-05-20T07:17:36.942Z,10.10
2023-05-20T07:18:36.904Z,10.20
2023-05-20T07:19:36.926Z,10.00
2023-05-20T07:20:36.896Z,10.10
2023-05-20T07:21:36.905Z,10.10
2023-05-20T07:22:36.902Z,9.90
2023-05-20T07:23:36.904Z,9.60
2023-05-20T07:24:36.898Z,9.60
2023-05-20T07:25:36.935Z,9.80
2023-05-20T07:26:36.895Z,9.80
2023-05-20T07:27:36.898Z,9.70
2023-05-20T07:28:36.898Z,9.40
2023-05-20T07:29:36.905Z,9.80
2023-05-20T07:30:36.900Z,9.70
2023-05-20T07:31:36.930Z,10.10
2023-05-20T07:32:36.987Z,9.50
2023-05-20T07:33:36.907Z,9.50
2023-05-20T07:34:36.908Z,10.80
2023-05-20T07:35:37.086Z,9.50
2023-05-20T07:36:36.901Z,10.10
2023-05-20T07:37:36.904Z,10.40
2023-05-20T07:38:36.903Z,10.60
2023-05-20T07:39:36.920Z,10.20
2023-05-20T07:40:36.905Z,10.30
2023-05-20T07:41:36.914Z,9.90
2023-05-20T07:42:36.910Z,10.10
2023-05-20T07:43:36.920Z,9.90
2023-05-20T07:44:36.908Z,10.30
2023-05-20T07:45:37.432Z,9.60
2023-05-20T07:46:36.952Z,9.80
2023-05-20T07:47:36.965Z,12.00
2023-05-20T07:48:36.909Z,10.00
2023-05-20T07:49:36.912Z,10.40
2023-05-20T07:50:36.920Z,10.70
2023-05-20T07:51:36.946Z,10.60
2023-05-20T07:52:54.482Z,10.50
2023-05-20T07:53:36.913Z,10.30
2023-05-20T07:54:36.908Z,10.10
2023-05-20T07:55:37.110Z,10.20
2023-05-20T07:56:36.911Z,10.30
2023-05-20T07:57:36.917Z,10.00
2023-05-20T07:58:36.911Z,9.90
2023-05-20T07:59:36.922Z,9.80
2023-05-20T08:00:36.912Z,10.30
2023-05-20T08:01:36.922Z,10.20
2023-05-20T08:02:36.965Z,9.80
2023-05-20T08:03:37.087Z,9.80
2023-05-20T08:04:36.992Z,10.00
2023-05-20T08:05:36.916Z,10.10
2023-05-20T08:06:36.918Z,9.90
2023-05-20T08:07:36.946Z,10.00
2023-05-20T08:08:36.923Z,10.00
2023-05-20T08:09:36.918Z,10.10
2023-05-20T08:10:36.923Z,10.10
2023-05-20T08:11:36.931Z,9.80
2023-05-20T08:12:36.923Z,10.20
2023-05-20T08:13:36.924Z,10.50
2023-05-20T08:14:36.926Z,10.50
2023-05-20T08:15:36.933Z,10.20
2023-05-20T08:16:36.947Z,10.30
2023-05-20T08:17:36.951Z,10.10
2023-05-20T08:18:36.925Z,9.70
2023-05-20T08:19:36.967Z,9.70
2023-05-20T08:20:36.939Z,10.00
2023-05-20T08:21:36.930Z,10.30
2023-05-20T08:22:36.929Z,11.20
2023-05-20T08:23:38.938Z,10.00
2023-05-20T08:24:36.929Z,10.00
2023-05-20T08:25:36.979Z,9.30
2023-05-20T08:26:36.930Z,9.80
2023-05-20T08:27:36.943Z,9.40
2023-05-20T08:28:36.940Z,9.20
2023-05-20T08:29:36.944Z,9.20
2023-05-20T08:30:36.936Z,9.20
2023-05-20T08:31:37.003Z,9.30
2023-05-20T08:32:36.965Z,9.30
2023-05-20T08:33:36.956Z,9.50
2023-05-20T08:34:36.941Z,9.70
2023-05-20T08:35:36.992Z,9.50
2023-05-20T08:36:36.941Z,9.80
2023-05-20T08:37:36.955Z,9.30
2023-05-20T08:38:36.949Z,9.50
2023-05-20T08:39:36.973Z,9.40
2023-05-20T08:40:36.950Z,9.30
2023-05-20T08:41:36.951Z,9.30
2023-05-20T08:42:36.958Z,9.50
2023-05-20T08:43:36.958Z,9.80
2023-05-20T08:44:36.947Z,9.80
2023-05-20T08:45:36.978Z,9.70
2023-05-20T08:46:36.982Z,9.20
2023-05-20T08:47:36.974Z,9.40
2023-05-20T08:48:37.007Z,9.70
2023-05-20T08:49:36.958Z,9.50
2023-05-20T08:50:36.955Z,9.90
2023-05-20T08:51:36.967Z,9.50
2023-05-20T08:52:36.963Z,9.30
2023-05-20T08:53:36.958Z,9.50
2023-05-20T08:54:36.960Z,9.40
2023-05-20T08:55:36.998Z,9.90
2023-05-20T08:56:36.970Z,9.80
2023-05-20T08:57:36.965Z,9.80
2023-05-20T08:58:36.966Z,9.70
2023-05-20T08:59:36.980Z,9.80
2023-05-20T09:00:36.962Z,10.50
2023-05-20T09:01:37.016Z,9.20
2023-05-20T09:02:36.990Z,9.40
2023-05-20T09:03:36.971Z,9.20
2023-05-20T09:04:37.005Z,9.30
2023-05-20T09:05:37.039Z,9.10
2023-05-20T09:06:36.969Z,9.20
2023-05-20T09:07:36.976Z,8.90
2023-05-20T09:08:36.974Z,8.70
2023-05-20T09:09:36.975Z,8.70
2023-05-20T09:10:36.978Z,9.10
2023-05-20T09:11:37.015Z,9.70
2023-05-20T09:12:36.987Z,9.60
2023-05-20T09:13:36.983Z,10.00
2023-05-20T09:14:36.981Z,10.30
2023-05-20T09:15:37.231Z,9.70
2023-05-20T09:16:36.989Z,9.90
2023-05-20T09:17:37.049Z,9.80
2023-05-20T09:18:36.997Z,9.40
2023-05-20T09:19:37.139Z,10.20
2023-05-20T09:20:36.989Z,9.80
2023-05-20T09:21:36.990Z,10.40
2023-05-20T09:22:36.983Z,10.40
2023-05-20T09:23:36.992Z,9.90
2023-05-20T09:24:36.997Z,10.20
2023-05-20T09:25:37.185Z,10.00
2023-05-20T09:26:37.012Z,10.10
2023-05-20T09:27:37.118Z,10.30
2023-05-20T09:28:36.990Z,10.50
2023-05-20T09:29:36.992Z,10.20
2023-05-20T09:30:36.990Z,10.10
2023-05-20T09:31:37.040Z,10.40
2023-05-20T09:32:37.014Z,10.30
2023-05-20T09:33:37.007Z,9.50
2023-05-20T09:34:36.999Z,9.40
2023-05-20T09:35:37.026Z,9.80
2023-05-20T09:36:37.011Z,9.90
2023-05-20T09:37:37.000Z,9.30
2023-05-20T09:38:37.007Z,9.80
2023-05-20T09:39:37.000Z,9.10
2023-05-20T09:40:37.014Z,8.90
2023-05-20T09:41:37.076Z,9.60
2023-05-20T09:42:37.002Z,9.60
2023-05-20T09:43:37.042Z,9.70
2023-05-20T09:44:37.005Z,10.10
2023-05-20T09:45:37.270Z,9.30
2023-05-20T09:46:37.089Z,9.90
2023-05-20T09:47:37.028Z,9.90
2023-05-20T09:48:37.024Z,9.80
2023-05-20T09:49:37.016Z,10.30
2023-05-20T09:50:37.015Z,10.20
2023-05-20T09:51:37.022Z,10.20
2023-05-20T09:52:37.018Z,10.60
2023-05-20T09:53:37.032Z,10.60
2023-05-20T09:54:37.021Z,10.30
2023-05-20T09:55:37.265Z,10.00
2023-05-20T09:56:37.028Z,10.30
2023-05-20T09:57:37.030Z,10.40
2023-05-20T09:58:37.031Z,9.70
2023-05-20T09:59:37.079Z,9.50
2023-05-20T10:00:37.030Z,9.70
2023-05-20T10:01:37.095Z,9.60
2023-05-20T10:02:37.145Z,9.70
2023-05-20T10:03:37.253Z,9.80
2023-05-20T10:04:37.040Z,10.00
2023-05-20T10:05:37.196Z,9.60
2023-05-20T10:06:37.032Z,10.00
2023-05-20T10:07:42.071Z,9.90
2023-05-20T10:08:37.038Z,10.10
2023-05-20T10:09:37.034Z,9.80
2023-05-20T10:10:37.038Z,9.50
2023-05-20T10:11:37.034Z,10.40
2023-05-20T10:12:37.040Z,10.10
2023-05-20T10:13:37.035Z,10.40
2023-05-20T10:14:37.040Z,10.30
2023-05-20T10:15:37.334Z,10.50
2023-05-20T10:16:37.060Z,9.90
2023-05-20T10:17:37.076Z,10.10
2023-05-20T10:18:37.053Z,12.60
2023-05-20T10:19:37.040Z,10.30
2023-05-20T10:20:37.046Z,11.10
2023-05-20T10:21:37.049Z,10.10
2023-05-20T10:22:37.057Z,10.40
2023-05-20T10:23:37.049Z,10.50
2023-05-20T10:24:37.053Z,10.60
2023-05-20T10:25:37.313Z,10.30
2023-05-20T10:26:37.054Z,10.50
2023-05-20T10:27:37.058Z,10.30
2023-05-20T10:28:37.056Z,11.40
2023-05-20T10:29:37.061Z,10.70
2023-05-20T10:30:37.157Z,10.40
2023-05-20T10:31:37.089Z,10.20
2023-05-20T10:32:37.169Z,10.60
2023-05-20T10:33:37.111Z,10.30
2023-05-20T10:34:37.075Z,9.90
2023-05-20T10:35:37.065Z,9.80
2023-05-20T10:36:37.072Z,9.80
2023-05-20T10:37:37.070Z,9.80
2023-05-20T10:38:37.078Z,10.20
2023-05-20T10:39:37.069Z,10.00
2023-05-20T10:40:37.206Z,9.70
2023-05-20T10:41:37.070Z,9.50
2023-05-20T10:42:37.082Z,9.40
2023-05-20T10:43:37.080Z,9.60
2023-05-20T10:44:37.082Z,9.80
2023-05-20T10:45:37.077Z,10.00
2023-05-20T10:46:53.825Z,9.90
2023-05-20T10:47:37.281Z,10.30
2023-05-20T10:48:37.188Z,9.90
2023-05-20T10:49:37.135Z,9.50
2023-05-20T10:50:37.106Z,9.80
2023-05-20T10:51:37.094Z,10.10
2023-05-20T10:52:37.099Z,10.00
2023-05-20T10:53:37.087Z,10.20
2023-05-20T10:54:37.093Z,9.70
2023-05-20T10:55:37.093Z,10.10
2023-05-20T10:56:37.098Z,10.10
2023-05-20T10:57:37.097Z,9.30
2023-05-20T10:58:37.091Z,10.10
2023-05-20T10:59:37.096Z,10.00
2023-05-20T11:00:37.414Z,10.00
2023-05-20T11:01:37.154Z,9.70
2023-05-20T11:02:37.207Z,10.40
2023-05-20T11:03:37.276Z,9.60
2023-05-20T11:04:37.104Z,10.10
2023-05-20T11:05:37.131Z,10.10
2023-05-20T11:06:37.116Z,10.10
2023-05-20T11:07:37.107Z,10.10
2023-05-20T11:08:37.123Z,10.40
2023-05-20T11:09:37.120Z,10.40
2023-05-20T11:10:37.126Z,10.50
2023-05-20T11:11:37.116Z,10.40
2023-05-20T11:12:37.165Z,10.00
2023-05-20T11:13:37.119Z,10.20
2023-05-20T11:14:37.126Z,9.50
2023-05-20T11:15:37.126Z,9.90
2023-05-20T11:16:37.141Z,10.30
2023-05-20T11:17:37.197Z,10.60
2023-05-20T11:18:37.135Z,10.40
2023-05-20T11:19:37.214Z,10.00
2023-05-20T11:20:37.131Z,10.10
2023-05-20T11:21:37.136Z,9.90
2023-05-20T11:22:37.150Z,10.30
2023-05-20T11:23:38.725Z,10.10
2023-05-20T11:24:37.149Z,10.30
2023-05-20T11:25:37.146Z,9.90
2023-05-20T11:26:37.160Z,10.10
2023-05-20T11:27:37.161Z,10.00
2023-05-20T11:28:37.158Z,10.40
2023-05-20T11:29:37.162Z,10.60
2023-05-20T11:30:37.433Z,10.30
2023-05-20T11:31:37.198Z,10.20
2023-05-20T11:32:37.177Z,9.90
2023-05-20T11:33:37.172Z,9.90
2023-05-20T11:34:37.169Z,9.70
2023-05-20T11:35:37.195Z,9.90
2023-05-20T11:36:37.172Z,9.90
2023-05-20T11:37:37.167Z,10.40
2023-05-20T11:38:37.191Z,10.50
2023-05-20T11:39:37.198Z,10.30
2023-05-20T11:40:49.713Z,10.20
2023-05-20T11:41:37.180Z,10.00
2023-05-20T11:42:37.182Z,9.90
2023-05-20T11:43:37.186Z,10.20
2023-05-20T11:44:37.193Z,10.50
2023-05-20T11:45:37.197Z,9.60
2023-05-20T11:46:37.397Z,9.90
2023-05-20T11:47:37.215Z,9.90
2023-05-20T11:48:37.194Z,10.20
2023-05-20T11:49:37.197Z,11.00
2023-05-20T11:50:37.197Z,10.30
2023-05-20T11:51:37.215Z,10.90
2023-05-20T11:52:37.206Z,10.50
2023-05-20T11:53:37.201Z,10.50
2023-05-20T11:54:37.214Z,10.40
2023-05-20T11:55:37.210Z,10.80
2023-05-20T11:56:37.249Z,10.50
2023-05-20T11:57:37.218Z,10.20
2023-05-20T11:58:37.226Z,10.50
2023-05-20T11:59:37.217Z,11.10
2023-05-20T12:00:49.817Z,10.60
2023-05-20T12:01:37.229Z,10.40
2023-05-20T12:02:37.301Z,10.40
2023-05-20T12:03:37.433Z,10.40
2023-05-20T12:04:37.350Z,11.30
2023-05-20T12:05:37.237Z,10.60
2023-05-20T12:06:37.249Z,10.90
2023-05-20T12:07:37.313Z,11.00
2023-05-20T12:08:37.251Z,10.50
2023-05-20T12:09:37.246Z,10.90
2023-05-20T12:10:37.411Z,10.50
2023-05-20T12:11:37.264Z,10.90
2023-05-20T12:12:37.266Z,11.00
2023-05-20T12:13:37.279Z,10.30
2023-05-20T12:14:37.316Z,10.40
2023-05-20T12:15:37.264Z,10.50
2023-05-20T12:16:37.409Z,11.00
2023-05-20T12:17:37.325Z,10.80
2023-05-20T12:18:37.288Z,11.00
2023-05-20T12:19:39.061Z,11.30
2023-05-20T12:20:37.711Z,11.00
2023-05-20T12:21:37.282Z,10.60
2023-05-20T12:22:37.300Z,10.70
2023-05-20T12:23:37.340Z,10.70
2023-05-20T12:24:37.293Z,11.80
2023-05-20T12:25:37.314Z,10.90
2023-05-20T12:26:37.310Z,10.90
2023-05-20T12:27:37.306Z,11.40
2023-05-20T12:28:37.320Z,10.90
2023-05-20T12:29:37.312Z,10.90
2023-05-20T12:30:37.403Z,13.00
2023-05-20T12:31:37.394Z,10.40
2023-05-20T12:32:37.752Z,10.10
2023-05-20T12:33:37.326Z,9.90
2023-05-20T12:34:37.350Z,10.40
2023-05-20T12:35:37.333Z,10.50
2023-05-20T12:36:37.344Z,10.20
2023-05-20T12:37:37.340Z,10.00
2023-05-20T12:38:37.357Z,10.40
2023-05-20T12:39:37.442Z,10.80
2023-05-20T12:40:37.875Z,11.00
2023-05-20T12:41:37.355Z,10.50
2023-05-20T12:42:37.366Z,11.10
2023-05-20T12:43:37.656Z,11.10
2023-05-20T12:44:37.380Z,11.00
2023-05-20T12:45:37.373Z,10.70
2023-05-20T12:46:37.435Z,10.30
2023-05-20T12:47:37.419Z,10.40
2023-05-20T12:48:37.504Z,10.60
2023-05-20T12:49:37.399Z,11.10
2023-05-20T12:50:37.698Z,10.80
2023-05-20T12:51:37.403Z,10.80
2023-05-20T12:52:37.405Z,10.40
2023-05-20T12:53:37.406Z,10.70
2023-05-20T12:54:37.418Z,10.50
2023-05-20T12:55:37.456Z,10.80
2023-05-20T12:56:37.424Z,10.50
2023-05-20T12:57:37.423Z,10.50
2023-05-20T12:58:37.442Z,10.20
2023-05-20T12:59:37.434Z,10.20
2023-05-20T13:00:37.510Z,9.80